Etusivu
METAR-TAF:

METAR-TAF

Lentoasemat :

Boise, Idaho, Yhdysvallat

Leveyspiiri: 43-34-00N, Pituuspiiri: 116-14-26W, korkeus merenpinnasta: 871 m

Tämänhetkinen sää

Tämä raportti tehtiin 10 minuuttia sitten, kello 19.53 UTC
Tuuli 3 kn eri suunnista
Lämpötila 29°C
Kosteus 27%
Ilmanpaine 1015 hPa
Näkyvyys: 16.1 km
selkeää

METAR: KBOI 031953Z VRB03KT 10SM CLR 29/08 A2996 RMK AO2 SLP120 T02940078

Aika: 14:03 (20:03 UTC)

Sääennuste

Tämä raportti tehtiin 2 tuntia ja 28 minuuttia sitten, kello 17.35 UTC
Ennuste voimassa 03. päivästä klo 18 UTC - 04. päivään klo 18 UTC
Tuuli 6 kn kaakosta
Näkyvyys: 10 km
Muutamia pilviä 15000 ft:n korkeudessa
From 03. päivästä klo 2000 UTC
Tuuli 9 kn luoteesta
Näkyvyys: 10 km
Hajanaisia pilviä 15000 ft:n korkeudessa
From 04. päivästä klo 0200 UTC
Tuuli 5 kn eri suunnista
Näkyvyys: 10 km
selkeää

TAF: KBOI 031735Z 0318/0418 14006KT P6SM FEW150 FM032000 31009KT P6SM SCT150 FM040200 VRB05KT P6SM SKC

Säähavainnot ja -ennusteet yli 4000 lentoasemalta (METAR- ja TAF-raportit).

Käytössä olevat sääasemat on merkitty karttaan keltaisilla ja punaisilla pisteillä.

Aseta hiiri pisteen päälle nähdäksesi sääaseman nimen.

Klikkaa sitten nähdäksesi säähavainnot ja -ennusteet.

Kartan vaihtaminen: klikkaa mustalla rastilla varustettuja vihreitä pisteitä, niin voit zoomata sisään; viivalla varustettua vihreää pistettä, niin voit zoomata ulos tai vihreitä nuolia, niin pääset viereisille kartoille.


METAR-TAF: